sensor_id;sensor_type;location;lat;lon;timestamp;pressure;altitude;pressure_sealevel;temperature;humidity
37450;BME280;23309;52.582;13.406;2022-10-16T00:00:20;100632.56;;;24.95;44.35
37450;BME280;23309;52.582;13.406;2022-10-16T00:02:46;100634.31;;;24.90;44.25
37450;BME280;23309;52.582;13.406;2022-10-16T00:05:13;100641.69;;;24.89;44.20
37450;BME280;23309;52.582;13.406;2022-10-16T00:07:39;100638.03;;;24.95;44.11
37450;BME280;23309;52.582;13.406;2022-10-16T00:10:08;100643.88;;;24.99;44.34
37450;BME280;23309;52.582;13.406;2022-10-16T00:12:34;100642.78;;;25.00;43.98
37450;BME280;23309;52.582;13.406;2022-10-16T00:15:00;100643.28;;;24.97;44.17
37450;BME280;23309;52.582;13.406;2022-10-16T00:17:27;100647.06;;;24.96;44.30
37450;BME280;23309;52.582;13.406;2022-10-16T00:19:53;100646.38;;;25.00;44.47
37450;BME280;23309;52.582;13.406;2022-10-16T00:22:19;100645.94;;;25.03;44.09
37450;BME280;23309;52.582;13.406;2022-10-16T00:24:45;100650.31;;;25.04;44.12
37450;BME280;23309;52.582;13.406;2022-10-16T00:27:14;100651.63;;;25.02;44.01
37450;BME280;23309;52.582;13.406;2022-10-16T00:29:40;100655.44;;;25.01;44.01
37450;BME280;23309;52.582;13.406;2022-10-16T00:32:06;100658.16;;;25.01;44.34
37450;BME280;23309;52.582;13.406;2022-10-16T00:34:32;100660.28;;;24.99;44.14
37450;BME280;23309;52.582;13.406;2022-10-16T00:36:58;100667.47;;;24.93;44.41
37450;BME280;23309;52.582;13.406;2022-10-16T00:39:24;100673.56;;;24.95;44.17
37450;BME280;23309;52.582;13.406;2022-10-16T00:41:50;100672.72;;;24.95;44.26
37450;BME280;23309;52.582;13.406;2022-10-16T00:44:49;100667.09;;;25.08;44.04
37450;BME280;23309;52.582;13.406;2022-10-16T00:47:21;100662.63;;;24.95;44.25
37450;BME280;23309;52.582;13.406;2022-10-16T00:49:51;100652.78;;;24.94;44.47
37450;BME280;23309;52.582;13.406;2022-10-16T00:52:19;100658.69;;;24.91;44.53
37450;BME280;23309;52.582;13.406;2022-10-16T00:54:46;100661.66;;;24.90;44.65
37450;BME280;23309;52.582;13.406;2022-10-16T00:57:14;100662.16;;;24.98;44.39
37450;BME280;23309;52.582;13.406;2022-10-16T00:59:41;100664.59;;;24.88;44.38
37450;BME280;23309;52.582;13.406;2022-10-16T01:02:14;100676.97;;;24.91;44.57
37450;BME280;23309;52.582;13.406;2022-10-16T01:04:44;100673.88;;;24.87;44.75
37450;BME280;23309;52.582;13.406;2022-10-16T01:07:18;100671.16;;;24.87;44.37
37450;BME280;23309;52.582;13.406;2022-10-16T01:09:57;100673.28;;;24.85;44.86
37450;BME280;23309;52.582;13.406;2022-10-16T01:12:38;100680.50;;;24.80;44.92
37450;BME280;23309;52.582;13.406;2022-10-16T01:15:11;100686.78;;;24.80;44.68
37450;BME280;23309;52.582;13.406;2022-10-16T01:17:48;100678.75;;;24.85;44.52
37450;BME280;23309;52.582;13.406;2022-10-16T01:20:26;100669.94;;;24.83;44.79
37450;BME280;23309;52.582;13.406;2022-10-16T01:23:08;100681.09;;;24.82;44.95
37450;BME280;23309;52.582;13.406;2022-10-16T01:26:20;100686.25;;;24.90;44.70
37450;BME280;23309;52.582;13.406;2022-10-16T01:28:59;100688.53;;;24.75;45.05
37450;BME280;23309;52.582;13.406;2022-10-16T01:31:31;100679.78;;;24.66;44.95
37450;BME280;23309;52.582;13.406;2022-10-16T01:34:03;100689.59;;;24.74;45.18
37450;BME280;23309;52.582;13.406;2022-10-16T01:36:37;100690.34;;;24.81;45.21
37450;BME280;23309;52.582;13.406;2022-10-16T01:39:06;100695.88;;;24.74;45.00
37450;BME280;23309;52.582;13.406;2022-10-16T01:41:39;100702.88;;;24.70;45.43
37450;BME280;23309;52.582;13.406;2022-10-16T01:44:12;100699.91;;;24.72;45.43
37450;BME280;23309;52.582;13.406;2022-10-16T01:46:42;100707.03;;;24.73;45.07
37450;BME280;23309;52.582;13.406;2022-10-16T01:49:10;100709.53;;;24.74;45.22
37450;BME280;23309;52.582;13.406;2022-10-16T01:51:37;100692.72;;;24.77;44.89
37450;BME280;23309;52.582;13.406;2022-10-16T01:54:06;100699.16;;;24.83;45.03
37450;BME280;23309;52.582;13.406;2022-10-16T01:56:34;100690.56;;;24.79;44.50
37450;BME280;23309;52.582;13.406;2022-10-16T01:59:06;100701.19;;;24.87;44.62
37450;BME280;23309;52.582;13.406;2022-10-16T02:01:39;100701.91;;;24.83;44.66
37450;BME280;23309;52.582;13.406;2022-10-16T02:04:13;100703.56;;;24.84;45.09
37450;BME280;23309;52.582;13.406;2022-10-16T02:06:41;100707.75;;;24.86;44.94
37450;BME280;23309;52.582;13.406;2022-10-16T02:09:07;100708.25;;;24.95;44.91
37450;BME280;23309;52.582;13.406;2022-10-16T02:11:33;100716.94;;;24.92;44.65
37450;BME280;23309;52.582;13.406;2022-10-16T02:14:04;100719.19;;;24.95;44.59
37450;BME280;23309;52.582;13.406;2022-10-16T02:16:38;100719.09;;;25.01;44.49
37450;BME280;23309;52.582;13.406;2022-10-16T02:19:05;100728.81;;;24.97;44.22
37450;BME280;23309;52.582;13.406;2022-10-16T02:21:38;100737.25;;;24.96;44.65
37450;BME280;23309;52.582;13.406;2022-10-16T02:24:11;100733.53;;;24.90;44.49
37450;BME280;23309;52.582;13.406;2022-10-16T02:26:47;100736.44;;;24.95;44.58
37450;BME280;23309;52.582;13.406;2022-10-16T02:29:19;100736.88;;;24.92;44.44
37450;BME280;23309;52.582;13.406;2022-10-16T02:31:52;100727.69;;;24.87;44.62
37450;BME280;23309;52.582;13.406;2022-10-16T02:34:21;100728.00;;;24.79;44.77
37450;BME280;23309;52.582;13.406;2022-10-16T02:36:51;100734.75;;;24.76;44.74
37450;BME280;23309;52.582;13.406;2022-10-16T02:39:18;100740.81;;;24.78;45.01
37450;BME280;23309;52.582;13.406;2022-10-16T02:41:45;100753.56;;;24.84;45.00
37450;BME280;23309;52.582;13.406;2022-10-16T02:44:11;100755.91;;;24.81;44.98
37450;BME280;23309;52.582;13.406;2022-10-16T02:46:37;100744.16;;;24.80;44.72
37450;BME280;23309;52.582;13.406;2022-10-16T02:49:06;100748.41;;;24.76;44.72
37450;BME280;23309;52.582;13.406;2022-10-16T02:51:32;100745.00;;;24.81;44.97
37450;BME280;23309;52.582;13.406;2022-10-16T02:53:58;100746.22;;;24.85;44.81
37450;BME280;23309;52.582;13.406;2022-10-16T02:56:24;100745.16;;;24.86;44.33
37450;BME280;23309;52.582;13.406;2022-10-16T02:58:51;100747.06;;;24.85;44.13
37450;BME280;23309;52.582;13.406;2022-10-16T03:01:17;100752.06;;;24.88;44.18
37450;BME280;23309;52.582;13.406;2022-10-16T03:03:43;100751.09;;;24.83;44.13
37450;BME280;23309;52.582;13.406;2022-10-16T03:06:11;100745.38;;;24.84;44.32
37450;BME280;23309;52.582;13.406;2022-10-16T03:08:38;100749.78;;;24.85;44.16
37450;BME280;23309;52.582;13.406;2022-10-16T03:11:04;100750.53;;;24.92;44.06
37450;BME280;23309;52.582;13.406;2022-10-16T03:13:30;100751.38;;;24.93;44.20
37450;BME280;23309;52.582;13.406;2022-10-16T03:15:56;100740.53;;;24.86;44.01
37450;BME280;23309;52.582;13.406;2022-10-16T03:18:22;100768.38;;;24.95;43.84
37450;BME280;23309;52.582;13.406;2022-10-16T03:20:48;100759.34;;;24.94;43.98
37450;BME280;23309;52.582;13.406;2022-10-16T03:23:17;100764.56;;;24.96;44.16
37450;BME280;23309;52.582;13.406;2022-10-16T03:25:43;100771.09;;;24.95;43.94
37450;BME280;23309;52.582;13.406;2022-10-16T03:28:09;100770.28;;;24.94;43.87
37450;BME280;23309;52.582;13.406;2022-10-16T03:30:35;100779.31;;;24.95;44.01
37450;BME280;23309;52.582;13.406;2022-10-16T03:33:01;100767.16;;;24.91;43.88
37450;BME280;23309;52.582;13.406;2022-10-16T03:35:27;100769.88;;;24.91;43.92
37450;BME280;23309;52.582;13.406;2022-10-16T03:37:54;100784.41;;;24.91;43.89
37450;BME280;23309;52.582;13.406;2022-10-16T03:40:22;100787.56;;;24.88;43.78
37450;BME280;23309;52.582;13.406;2022-10-16T03:42:48;100790.53;;;24.87;44.10
37450;BME280;23309;52.582;13.406;2022-10-16T03:45:15;100792.66;;;24.85;43.88
37450;BME280;23309;52.582;13.406;2022-10-16T03:47:41;100797.75;;;24.81;44.39
37450;BME280;23309;52.582;13.406;2022-10-16T03:50:08;100787.88;;;24.80;43.99
37450;BME280;23309;52.582;13.406;2022-10-16T03:52:34;100799.84;;;24.79;44.32
37450;BME280;23309;52.582;13.406;2022-10-16T03:55:00;100816.47;;;24.78;44.33
37450;BME280;23309;52.582;13.406;2022-10-16T03:57:29;100814.59;;;24.78;44.08
37450;BME280;23309;52.582;13.406;2022-10-16T03:59:55;100811.00;;;24.78;44.39
37450;BME280;23309;52.582;13.406;2022-10-16T04:02:21;100808.59;;;24.70;44.76
37450;BME280;23309;52.582;13.406;2022-10-16T04:04:48;100814.66;;;24.72;44.80
37450;BME280;23309;52.582;13.406;2022-10-16T04:07:14;100821.84;;;24.66;44.94
37450;BME280;23309;52.582;13.406;2022-10-16T04:09:40;100804.84;;;24.64;44.53
37450;BME280;23309;52.582;13.406;2022-10-16T04:12:06;100825.84;;;24.64;44.97
37450;BME280;23309;52.582;13.406;2022-10-16T04:14:34;100830.31;;;24.58;45.17
37450;BME280;23309;52.582;13.406;2022-10-16T04:17:01;100831.59;;;24.56;44.90
37450;BME280;23309;52.582;13.406;2022-10-16T04:19:27;100824.28;;;24.50;45.09
37450;BME280;23309;52.582;13.406;2022-10-16T04:21:53;100841.50;;;24.50;45.51
37450;BME280;23309;52.582;13.406;2022-10-16T04:24:19;100831.44;;;24.44;45.34
37450;BME280;23309;52.582;13.406;2022-10-16T04:26:45;100831.03;;;24.47;45.56
37450;BME280;23309;52.582;13.406;2022-10-16T04:29:11;100829.41;;;24.40;45.44
37450;BME280;23309;52.582;13.406;2022-10-16T04:31:40;100836.38;;;24.36;45.72
37450;BME280;23309;52.582;13.406;2022-10-16T04:34:06;100828.84;;;24.31;45.58
37450;BME280;23309;52.582;13.406;2022-10-16T04:36:32;100812.53;;;24.25;45.88
37450;BME280;23309;52.582;13.406;2022-10-16T04:38:58;100814.97;;;24.33;45.63
37450;BME280;23309;52.582;13.406;2022-10-16T04:41:24;100820.47;;;24.26;45.60
37450;BME280;23309;52.582;13.406;2022-10-16T04:43:50;100816.53;;;24.22;45.43
37450;BME280;23309;52.582;13.406;2022-10-16T04:46:16;100818.59;;;24.27;45.67
37450;BME280;23309;52.582;13.406;2022-10-16T04:48:45;100823.41;;;24.31;45.79
37450;BME280;23309;52.582;13.406;2022-10-16T04:51:11;100810.78;;;24.30;45.38
37450;BME280;23309;52.582;13.406;2022-10-16T04:53:37;100802.38;;;24.32;45.22
37450;BME280;23309;52.582;13.406;2022-10-16T04:56:04;100813.25;;;24.38;45.41
37450;BME280;23309;52.582;13.406;2022-10-16T04:58:30;100806.06;;;24.44;44.97
37450;BME280;23309;52.582;13.406;2022-10-16T05:00:56;100808.09;;;24.48;45.10
37450;BME280;23309;52.582;13.406;2022-10-16T05:03:22;100823.69;;;24.48;45.02
37450;BME280;23309;52.582;13.406;2022-10-16T05:05:51;100827.22;;;24.48;44.88
37450;BME280;23309;52.582;13.406;2022-10-16T05:08:17;100825.22;;;24.37;45.14
37450;BME280;23309;52.582;13.406;2022-10-16T05:10:44;100840.06;;;24.48;45.04
37450;BME280;23309;52.582;13.406;2022-10-16T05:13:11;100846.81;;;24.45;45.02
37450;BME280;23309;52.582;13.406;2022-10-16T05:15:38;100849.75;;;24.44;45.02
37450;BME280;23309;52.582;13.406;2022-10-16T05:18:04;100860.47;;;24.45;44.94
37450;BME280;23309;52.582;13.406;2022-10-16T05:20:30;100856.03;;;24.44;44.75
37450;BME280;23309;52.582;13.406;2022-10-16T05:22:59;100854.59;;;24.42;44.89
37450;BME280;23309;52.582;13.406;2022-10-16T05:25:25;100857.38;;;24.35;45.14
37450;BME280;23309;52.582;13.406;2022-10-16T05:27:51;100856.75;;;24.33;45.33
37450;BME280;23309;52.582;13.406;2022-10-16T05:30:18;100852.16;;;24.34;45.09
37450;BME280;23309;52.582;13.406;2022-10-16T05:32:47;100853.19;;;24.33;45.20
37450;BME280;23309;52.582;13.406;2022-10-16T05:35:13;100835.34;;;24.30;45.32
37450;BME280;23309;52.582;13.406;2022-10-16T05:37:39;100846.44;;;24.35;44.85
37450;BME280;23309;52.582;13.406;2022-10-16T05:40:09;100859.00;;;24.43;45.15
37450;BME280;23309;52.582;13.406;2022-10-16T05:42:36;100863.41;;;24.44;45.26
37450;BME280;23309;52.582;13.406;2022-10-16T05:45:03;100867.97;;;24.50;44.88
37450;BME280;23309;52.582;13.406;2022-10-16T05:47:29;100873.44;;;24.50;44.86
37450;BME280;23309;52.582;13.406;2022-10-16T05:49:55;100853.81;;;24.35;44.74
37450;BME280;23309;52.582;13.406;2022-10-16T05:52:21;100866.75;;;24.46;44.75
37450;BME280;23309;52.582;13.406;2022-10-16T05:54:47;100872.31;;;24.57;44.57
37450;BME280;23309;52.582;13.406;2022-10-16T05:57:16;100865.59;;;24.60;44.96
37450;BME280;23309;52.582;13.406;2022-10-16T05:59:42;100873.53;;;24.68;44.69
37450;BME280;23309;52.582;13.406;2022-10-16T06:02:11;100872.25;;;24.70;44.61
37450;BME280;23309;52.582;13.406;2022-10-16T06:04:38;100875.13;;;24.75;44.32
37450;BME280;23309;52.582;13.406;2022-10-16T06:07:04;100883.13;;;24.77;44.70
37450;BME280;23309;52.582;13.406;2022-10-16T06:09:30;100880.09;;;24.85;44.29
37450;BME280;23309;52.582;13.406;2022-10-16T06:11:56;100887.72;;;24.83;43.97
37450;BME280;23309;52.582;13.406;2022-10-16T06:14:25;100892.03;;;24.90;43.95
37450;BME280;23309;52.582;13.406;2022-10-16T06:16:51;100900.84;;;24.92;44.33
37450;BME280;23309;52.582;13.406;2022-10-16T06:19:18;100892.66;;;24.92;44.12
37450;BME280;23309;52.582;13.406;2022-10-16T06:21:44;100897.28;;;24.92;43.78
37450;BME280;23309;52.582;13.406;2022-10-16T06:24:10;100893.34;;;24.88;44.05
37450;BME280;23309;52.582;13.406;2022-10-16T06:26:37;100891.03;;;24.85;44.16
37450;BME280;23309;52.582;13.406;2022-10-16T06:29:04;100901.91;;;24.91;44.10
37450;BME280;23309;52.582;13.406;2022-10-16T06:31:33;100896.00;;;24.94;44.53
37450;BME280;23309;52.582;13.406;2022-10-16T06:33:59;100902.84;;;25.03;44.10
37450;BME280;23309;52.582;13.406;2022-10-16T06:36:26;100905.53;;;25.10;44.02
37450;BME280;23309;52.582;13.406;2022-10-16T06:38:53;100905.53;;;25.10;43.64
37450;BME280;23309;52.582;13.406;2022-10-16T06:41:21;100920.41;;;25.14;43.88
37450;BME280;23309;52.582;13.406;2022-10-16T06:43:48;100921.41;;;25.19;43.53
37450;BME280;23309;52.582;13.406;2022-10-16T06:46:20;100927.72;;;25.20;43.14
37450;BME280;23309;52.582;13.406;2022-10-16T06:48:49;100929.66;;;25.13;43.43
37450;BME280;23309;52.582;13.406;2022-10-16T06:51:18;100936.63;;;25.09;43.45
37450;BME280;23309;52.582;13.406;2022-10-16T06:53:46;100937.03;;;25.12;43.59
37450;BME280;23309;52.582;13.406;2022-10-16T06:56:15;100933.91;;;25.09;43.70
37450;BME280;23309;52.582;13.406;2022-10-16T06:58:42;100931.09;;;25.15;43.28
37450;BME280;23309;52.582;13.406;2022-10-16T07:01:10;100941.97;;;25.22;43.62
37450;BME280;23309;52.582;13.406;2022-10-16T07:03:37;100933.75;;;25.28;43.40
37450;BME280;23309;52.582;13.406;2022-10-16T07:06:08;100942.50;;;25.37;43.43
37450;BME280;23309;52.582;13.406;2022-10-16T07:08:37;100944.72;;;25.46;43.23
37450;BME280;23309;52.582;13.406;2022-10-16T07:11:06;100954.72;;;25.52;43.03
37450;BME280;23309;52.582;13.406;2022-10-16T07:13:33;100956.81;;;25.57;42.85
37450;BME280;23309;52.582;13.406;2022-10-16T07:16:04;100963.88;;;25.64;42.67
37450;BME280;23309;52.582;13.406;2022-10-16T07:18:31;100954.59;;;25.65;42.58
37450;BME280;23309;52.582;13.406;2022-10-16T07:21:06;100964.56;;;25.78;42.75
37450;BME280;23309;52.582;13.406;2022-10-16T07:23:33;100962.06;;;25.77;42.13
37450;BME280;23309;52.582;13.406;2022-10-16T07:25:59;100956.38;;;25.78;42.65
37450;BME280;23309;52.582;13.406;2022-10-16T07:28:26;100940.91;;;25.83;42.40
37450;BME280;23309;52.582;13.406;2022-10-16T07:30:52;100951.63;;;25.85;42.43
37450;BME280;23309;52.582;13.406;2022-10-16T07:33:18;100957.25;;;25.90;42.32
37450;BME280;23309;52.582;13.406;2022-10-16T07:35:49;100954.09;;;25.93;42.33
37450;BME280;23309;52.582;13.406;2022-10-16T07:38:20;100948.97;;;25.97;42.41
37450;BME280;23309;52.582;13.406;2022-10-16T07:40:46;100958.34;;;26.07;42.43
37450;BME280;23309;52.582;13.406;2022-10-16T07:43:13;100961.59;;;26.16;42.17
37450;BME280;23309;52.582;13.406;2022-10-16T07:45:47;100964.84;;;26.24;42.18
37450;BME280;23309;52.582;13.406;2022-10-16T07:48:14;100979.19;;;26.38;41.62
37450;BME280;23309;52.582;13.406;2022-10-16T07:50:40;100965.41;;;26.44;41.57
37450;BME280;23309;52.582;13.406;2022-10-16T07:53:06;100957.19;;;26.44;41.54
37450;BME280;23309;52.582;13.406;2022-10-16T07:55:35;100959.56;;;26.41;41.10
37450;BME280;23309;52.582;13.406;2022-10-16T07:58:01;100955.66;;;26.48;41.57
37450;BME280;23309;52.582;13.406;2022-10-16T08:00:27;100960.38;;;26.59;40.86
37450;BME280;23309;52.582;13.406;2022-10-16T08:02:53;100969.19;;;26.61;41.06
37450;BME280;23309;52.582;13.406;2022-10-16T08:05:19;100979.31;;;26.61;41.19
37450;BME280;23309;52.582;13.406;2022-10-16T08:07:48;100990.53;;;26.59;41.21
37450;BME280;23309;52.582;13.406;2022-10-16T08:10:17;101000.69;;;26.52;41.19
37450;BME280;23309;52.582;13.406;2022-10-16T08:12:46;101004.28;;;26.53;41.27
37450;BME280;23309;52.582;13.406;2022-10-16T08:15:12;101007.03;;;26.53;41.44
37450;BME280;23309;52.582;13.406;2022-10-16T08:17:38;101000.63;;;26.59;40.99
37450;BME280;23309;52.582;13.406;2022-10-16T08:20:06;101003.19;;;26.54;41.57
37450;BME280;23309;52.582;13.406;2022-10-16T08:22:32;100992.47;;;26.52;41.09
37450;BME280;23309;52.582;13.406;2022-10-16T08:24:59;100981.06;;;26.55;41.34
37450;BME280;23309;52.582;13.406;2022-10-16T08:27:25;100986.34;;;26.57;41.03
37450;BME280;23309;52.582;13.406;2022-10-16T08:29:53;100979.94;;;26.45;41.34
37450;BME280;23309;52.582;13.406;2022-10-16T08:32:19;100999.25;;;26.50;41.35
37450;BME280;23309;52.582;13.406;2022-10-16T08:34:46;101001.50;;;26.41;41.39
37450;BME280;23309;52.582;13.406;2022-10-16T08:37:12;101010.06;;;26.45;41.45
37450;BME280;23309;52.582;13.406;2022-10-16T08:39:38;101003.66;;;26.51;41.25
37450;BME280;23309;52.582;13.406;2022-10-16T08:42:19;100998.97;;;26.58;41.22
37450;BME280;23309;52.582;13.406;2022-10-16T08:45:18;100993.50;;;26.58;41.27
37450;BME280;23309;52.582;13.406;2022-10-16T08:47:51;101016.69;;;26.55;41.25
37450;BME280;23309;52.582;13.406;2022-10-16T08:50:24;101013.47;;;26.58;41.46
37450;BME280;23309;52.582;13.406;2022-10-16T08:52:51;101000.41;;;26.60;41.05
37450;BME280;23309;52.582;13.406;2022-10-16T08:55:33;101005.34;;;26.70;41.08
37450;BME280;23309;52.582;13.406;2022-10-16T08:58:12;101014.59;;;26.69;40.93
37450;BME280;23309;52.582;13.406;2022-10-16T09:00:43;101011.03;;;26.68;40.67
37450;BME280;23309;52.582;13.406;2022-10-16T09:03:26;101029.19;;;26.81;40.79
37450;BME280;23309;52.582;13.406;2022-10-16T09:06:15;101022.16;;;26.85;40.66
37450;BME280;23309;52.582;13.406;2022-10-16T09:08:55;101030.31;;;27.03;40.40
37450;BME280;23309;52.582;13.406;2022-10-16T09:11:36;101024.78;;;27.21;40.06
37450;BME280;23309;52.582;13.406;2022-10-16T09:14:17;101043.03;;;27.38;39.80
37450;BME280;23309;52.582;13.406;2022-10-16T09:16:57;101050.34;;;27.56;39.27
37450;BME280;23309;52.582;13.406;2022-10-16T09:19:28;101039.59;;;27.77;39.21
37450;BME280;23309;52.582;13.406;2022-10-16T09:21:57;101033.59;;;28.15;38.38
37450;BME280;23309;52.582;13.406;2022-10-16T09:24:26;101032.09;;;28.47;37.76
37450;BME280;23309;52.582;13.406;2022-10-16T09:26:52;101035.69;;;28.47;37.33
37450;BME280;23309;52.582;13.406;2022-10-16T09:29:20;101034.38;;;28.50;37.08
37450;BME280;23309;52.582;13.406;2022-10-16T09:31:47;101039.50;;;28.46;37.48
37450;BME280;23309;52.582;13.406;2022-10-16T09:34:24;101041.63;;;28.56;37.16
37450;BME280;23309;52.582;13.406;2022-10-16T09:36:54;101037.38;;;28.48;37.10
37450;BME280;23309;52.582;13.406;2022-10-16T09:39:23;101033.00;;;28.64;36.96
37450;BME280;23309;52.582;13.406;2022-10-16T09:41:49;101030.38;;;28.85;36.57
37450;BME280;23309;52.582;13.406;2022-10-16T09:44:22;101032.84;;;29.15;36.02
37450;BME280;23309;52.582;13.406;2022-10-16T09:47:02;101047.06;;;29.56;35.94
37450;BME280;23309;52.582;13.406;2022-10-16T09:49:31;101060.78;;;29.89;35.38
37450;BME280;23309;52.582;13.406;2022-10-16T09:52:04;101064.53;;;30.00;34.56
37450;BME280;23309;52.582;13.406;2022-10-16T09:54:31;101072.91;;;29.88;34.43
37450;BME280;23309;52.582;13.406;2022-10-16T09:57:05;101068.47;;;30.25;34.12
37450;BME280;23309;52.582;13.406;2022-10-16T09:59:32;101063.38;;;30.34;33.74
37450;BME280;23309;52.582;13.406;2022-10-16T10:02:04;101069.13;;;30.54;33.71
37450;BME280;23309;52.582;13.406;2022-10-16T10:04:47;101069.66;;;30.72;33.49
37450;BME280;23309;52.582;13.406;2022-10-16T10:07:20;101071.63;;;31.30;32.51
37450;BME280;23309;52.582;13.406;2022-10-16T10:09:47;101078.22;;;31.60;31.60
37450;BME280;23309;52.582;13.406;2022-10-16T10:12:21;101076.66;;;31.33;31.84
37450;BME280;23309;52.582;13.406;2022-10-16T10:14:50;101077.25;;;31.13;32.37
37450;BME280;23309;52.582;13.406;2022-10-16T10:17:19;101078.66;;;30.89;32.38
37450;BME280;23309;52.582;13.406;2022-10-16T10:19:52;101068.38;;;30.58;32.82
37450;BME280;23309;52.582;13.406;2022-10-16T10:22:31;101079.88;;;30.12;33.31
37450;BME280;23309;52.582;13.406;2022-10-16T10:25:12;101090.00;;;29.90;33.76
37450;BME280;23309;52.582;13.406;2022-10-16T10:27:53;101091.09;;;29.73;34.48
37450;BME280;23309;52.582;13.406;2022-10-16T10:30:26;101080.31;;;29.38;35.06
37450;BME280;23309;52.582;13.406;2022-10-16T10:33:16;101103.94;;;29.34;34.90
37450;BME280;23309;52.582;13.406;2022-10-16T10:35:56;101105.72;;;29.12;35.04
37450;BME280;23309;52.582;13.406;2022-10-16T10:38:39;101111.84;;;29.03;35.24
37450;BME280;23309;52.582;13.406;2022-10-16T10:44:21;101101.72;;;28.92;35.81
37450;BME280;23309;52.582;13.406;2022-10-16T10:46:56;101116.97;;;29.11;35.42
37450;BME280;23309;52.582;13.406;2022-10-16T10:49:44;101098.88;;;29.15;35.36
37450;BME280;23309;52.582;13.406;2022-10-16T10:52:48;101111.84;;;29.47;34.83
37450;BME280;23309;52.582;13.406;2022-10-16T10:55:23;101107.84;;;30.04;34.15
37450;BME280;23309;52.582;13.406;2022-10-16T10:58:29;101104.72;;;30.77;32.52
37450;BME280;23309;52.582;13.406;2022-10-16T11:01:08;101113.50;;;30.95;32.22
37450;BME280;23309;52.582;13.406;2022-10-16T11:03:59;101108.97;;;31.37;31.27
37450;BME280;23309;52.582;13.406;2022-10-16T11:06:31;101121.78;;;31.48;31.01
37450;BME280;23309;52.582;13.406;2022-10-16T11:09:10;101107.53;;;31.30;30.75
37450;BME280;23309;52.582;13.406;2022-10-16T11:11:42;101114.06;;;30.97;31.23
37450;BME280;23309;52.582;13.406;2022-10-16T11:14:16;101106.78;;;30.86;31.81
37450;BME280;23309;52.582;13.406;2022-10-16T11:16:51;101109.50;;;30.65;31.59
37450;BME280;23309;52.582;13.406;2022-10-16T11:19:30;101108.03;;;30.57;32.27
37450;BME280;23309;52.582;13.406;2022-10-16T11:22:03;101121.81;;;30.36;32.25
37450;BME280;23309;52.582;13.406;2022-10-16T11:24:41;101116.63;;;30.39;32.26
37450;BME280;23309;52.582;13.406;2022-10-16T11:27:14;101112.38;;;30.32;32.02
37450;BME280;23309;52.582;13.406;2022-10-16T11:29:49;101097.56;;;30.16;32.24
37450;BME280;23309;52.582;13.406;2022-10-16T11:32:23;101107.78;;;30.16;31.72
37450;BME280;23309;52.582;13.406;2022-10-16T11:34:55;101112.19;;;30.17;31.99
37450;BME280;23309;52.582;13.406;2022-10-16T11:37:27;101109.06;;;30.30;31.94
37450;BME280;23309;52.582;13.406;2022-10-16T11:40:15;101107.47;;;30.55;31.54
37450;BME280;23309;52.582;13.406;2022-10-16T11:42:50;101105.28;;;30.57;31.47
37450;BME280;23309;52.582;13.406;2022-10-16T11:45:29;101106.16;;;31.06;30.50
37450;BME280;23309;52.582;13.406;2022-10-16T11:48:07;101107.31;;;31.10;29.91
37450;BME280;23309;52.582;13.406;2022-10-16T11:50:43;101112.50;;;31.28;29.19
37450;BME280;23309;52.582;13.406;2022-10-16T11:53:18;101108.56;;;31.55;29.05
37450;BME280;23309;52.582;13.406;2022-10-16T11:55:50;101112.66;;;31.79;28.71
37450;BME280;23309;52.582;13.406;2022-10-16T11:58:24;101112.81;;;31.99;28.00
37450;BME280;23309;52.582;13.406;2022-10-16T12:01:00;101114.59;;;32.21;27.71
37450;BME280;23309;52.582;13.406;2022-10-16T12:03:34;101112.44;;;32.28;27.51
37450;BME280;23309;52.582;13.406;2022-10-16T12:06:25;101125.72;;;32.82;26.70
37450;BME280;23309;52.582;13.406;2022-10-16T12:08:54;101119.69;;;33.00;26.64
37450;BME280;23309;52.582;13.406;2022-10-16T12:11:36;101126.63;;;33.18;25.13
37450;BME280;23309;52.582;13.406;2022-10-16T12:14:35;101141.34;;;33.28;25.32
37450;BME280;23309;52.582;13.406;2022-10-16T12:17:04;101130.03;;;33.40;25.64
37450;BME280;23309;52.582;13.406;2022-10-16T12:19:58;101142.78;;;33.76;24.96
37450;BME280;23309;52.582;13.406;2022-10-16T12:22:29;101145.28;;;34.07;25.18
37450;BME280;23309;52.582;13.406;2022-10-16T12:24:56;101141.94;;;34.25;24.23
37450;BME280;23309;52.582;13.406;2022-10-16T12:27:29;101150.53;;;34.09;23.71
37450;BME280;23309;52.582;13.406;2022-10-16T12:29:58;101149.44;;;33.65;23.76
37450;BME280;23309;52.582;13.406;2022-10-16T12:32:31;101148.31;;;33.41;24.31
37450;BME280;23309;52.582;13.406;2022-10-16T12:34:59;101142.50;;;33.32;24.70
37450;BME280;23309;52.582;13.406;2022-10-16T12:37:29;101140.25;;;33.34;24.43
37450;BME280;23309;52.582;13.406;2022-10-16T12:39:57;101163.84;;;33.57;24.53
37450;BME280;23309;52.582;13.406;2022-10-16T12:42:33;101151.94;;;33.66;23.87
37450;BME280;23309;52.582;13.406;2022-10-16T12:45:01;101154.72;;;33.66;23.94
37450;BME280;23309;52.582;13.406;2022-10-16T12:47:38;101166.94;;;33.80;23.62
37450;BME280;23309;52.582;13.406;2022-10-16T12:50:33;101166.09;;;34.10;23.63
37450;BME280;23309;52.582;13.406;2022-10-16T12:53:00;101165.22;;;34.19;23.20
37450;BME280;23309;52.582;13.406;2022-10-16T12:55:35;101173.28;;;34.16;22.77
37450;BME280;23309;52.582;13.406;2022-10-16T12:58:37;101164.13;;;34.25;22.34
37450;BME280;23309;52.582;13.406;2022-10-16T13:01:16;101165.53;;;33.93;23.01